createdAt,value
2024-01-28T00:02:00.724Z,13.93
2024-01-28T00:04:27.695Z,13.90
2024-01-28T00:06:54.983Z,16.30
2024-01-28T00:09:21.884Z,14.35
2024-01-28T00:11:48.697Z,12.97
2024-01-28T00:14:15.470Z,10.90
2024-01-28T00:16:42.410Z,14.00
2024-01-28T00:19:10.396Z,14.70
2024-01-28T00:21:37.371Z,14.53
2024-01-28T00:24:06.329Z,11.73
2024-01-28T00:26:38.302Z,13.90
2024-01-28T00:29:05.905Z,13.27
2024-01-28T00:31:32.823Z,13.87
2024-01-28T00:34:01.829Z,15.57
2024-01-28T00:36:28.905Z,14.70
2024-01-28T00:38:55.692Z,15.00
2024-01-28T00:41:31.349Z,13.50
2024-01-28T00:43:59.658Z,15.10
2024-01-28T00:46:26.569Z,15.37
2024-01-28T00:48:53.817Z,18.77
2024-01-28T00:51:20.746Z,24.17
2024-01-28T00:53:47.584Z,20.20
2024-01-28T00:56:17.789Z,23.10
2024-01-28T00:58:45.439Z,18.50
2024-01-28T01:01:14.003Z,19.63
2024-01-28T01:03:41.051Z,16.43
2024-01-28T01:06:09.019Z,17.70
2024-01-28T01:08:38.894Z,16.40
2024-01-28T01:11:08.075Z,14.87
2024-01-28T01:13:35.458Z,15.57
2024-01-28T01:16:02.269Z,13.50
2024-01-28T01:18:29.267Z,13.83
2024-01-28T01:20:56.175Z,12.27
2024-01-28T01:23:23.409Z,12.43
2024-01-28T01:25:50.227Z,12.03
2024-01-28T01:28:17.412Z,16.13
2024-01-28T01:30:44.355Z,11.97
2024-01-28T01:33:11.263Z,12.30
2024-01-28T01:35:38.189Z,10.33
2024-01-28T01:38:05.317Z,11.97
2024-01-28T01:40:32.090Z,12.60
2024-01-28T01:42:58.902Z,11.33
2024-01-28T01:45:25.728Z,11.33
2024-01-28T01:47:52.743Z,11.73
2024-01-28T01:50:20.055Z,14.53
2024-01-28T01:52:47.108Z,10.80
2024-01-28T01:55:14.290Z,12.37
2024-01-28T01:57:43.971Z,11.33
2024-01-28T02:00:16.497Z,11.10
2024-01-28T02:02:47.839Z,11.43
2024-01-28T02:05:15.346Z,10.53
2024-01-28T02:07:42.233Z,11.90
2024-01-28T02:10:11.103Z,11.97
2024-01-28T02:12:38.839Z,13.03
2024-01-28T02:15:07.814Z,9.57
2024-01-28T02:17:34.679Z,11.03
2024-01-28T02:20:01.667Z,13.30
2024-01-28T02:22:28.508Z,12.67
2024-01-28T02:24:55.834Z,11.43
2024-01-28T02:27:22.707Z,12.73
2024-01-28T02:29:49.740Z,10.97
2024-01-28T02:32:18.298Z,8.93
2024-01-28T02:34:45.593Z,10.37
2024-01-28T02:37:12.565Z,15.10
2024-01-28T02:39:40.146Z,10.77
2024-01-28T02:42:07.620Z,11.63
2024-01-28T02:44:34.421Z,14.67
2024-01-28T02:47:03.831Z,11.27
2024-01-28T02:49:30.800Z,11.37
2024-01-28T02:51:57.715Z,14.33
2024-01-28T02:54:24.871Z,9.07
2024-01-28T02:56:53.427Z,13.17
2024-01-28T02:59:20.350Z,11.30
2024-01-28T03:01:50.885Z,9.43
2024-01-28T03:04:17.900Z,14.10
2024-01-28T03:06:45.103Z,11.17
2024-01-28T03:09:12.102Z,12.83
2024-01-28T03:11:39.665Z,10.70
2024-01-28T03:14:08.094Z,11.53
2024-01-28T03:16:35.461Z,11.83
2024-01-28T03:19:02.810Z,14.07
2024-01-28T03:21:30.182Z,11.03
2024-01-28T03:23:57.708Z,10.23
2024-01-28T03:26:24.619Z,13.90
2024-01-28T03:28:51.827Z,7.97
2024-01-28T03:31:19.793Z,9.63
2024-01-28T03:33:46.727Z,11.20
2024-01-28T03:36:13.937Z,11.60
2024-01-28T03:38:41.305Z,10.93
2024-01-28T03:41:08.218Z,9.27
2024-01-28T03:43:35.218Z,11.60
2024-01-28T03:46:03.366Z,13.27
2024-01-28T03:48:30.538Z,13.27
2024-01-28T03:50:57.382Z,9.80
2024-01-28T03:53:24.170Z,11.33
2024-01-28T03:55:51.053Z,10.53
2024-01-28T03:58:17.869Z,10.13
2024-01-28T04:00:44.807Z,10.37
2024-01-28T04:03:12.345Z,12.03
2024-01-28T04:05:39.429Z,11.23
2024-01-28T04:08:11.012Z,11.80
2024-01-28T04:10:38.032Z,11.20
2024-01-28T04:13:04.997Z,12.67
2024-01-28T04:15:31.849Z,12.23
2024-01-28T04:17:59.491Z,9.83
2024-01-28T04:20:26.453Z,12.47
2024-01-28T04:22:53.238Z,13.93
2024-01-28T04:25:20.105Z,10.27
2024-01-28T04:27:46.927Z,11.50
2024-01-28T04:30:14.094Z,10.20
2024-01-28T04:32:41.003Z,14.77
2024-01-28T04:35:12.632Z,12.10
2024-01-28T04:37:40.762Z,13.63
2024-01-28T04:40:08.840Z,10.83
2024-01-28T04:42:36.263Z,15.00
2024-01-28T04:45:04.263Z,11.37
2024-01-28T04:47:31.332Z,12.17
2024-01-28T04:49:58.296Z,11.27
2024-01-28T04:52:25.245Z,13.10
2024-01-28T04:54:52.272Z,14.47
2024-01-28T04:57:19.148Z,13.93
2024-01-28T04:59:45.953Z,13.30
2024-01-28T05:02:12.755Z,12.80
2024-01-28T05:04:39.785Z,12.70
2024-01-28T05:07:06.810Z,11.73
2024-01-28T05:09:33.691Z,11.73
2024-01-28T05:12:00.921Z,9.33
2024-01-28T05:14:27.728Z,11.83
2024-01-28T05:16:54.773Z,12.33
2024-01-28T05:19:22.264Z,11.27
2024-01-28T05:21:49.295Z,12.53
2024-01-28T05:24:16.156Z,15.27
2024-01-28T05:26:43.881Z,10.83
2024-01-28T05:29:11.119Z,11.80
2024-01-28T05:31:38.634Z,11.87
2024-01-28T05:34:06.340Z,13.47
2024-01-28T05:36:33.425Z,9.80
2024-01-28T05:39:00.476Z,10.27
2024-01-28T05:41:27.397Z,10.80
2024-01-28T05:43:54.266Z,14.50
2024-01-28T05:46:21.189Z,9.60
2024-01-28T05:48:48.203Z,15.00
2024-01-28T05:51:15.212Z,13.83
2024-01-28T05:53:42.108Z,10.57
2024-01-28T05:56:08.860Z,13.27
2024-01-28T05:58:36.270Z,11.93
2024-01-28T06:01:08.195Z,11.30
2024-01-28T06:03:35.421Z,13.20
2024-01-28T06:06:02.594Z,11.83
2024-01-28T06:08:31.268Z,14.23
2024-01-28T06:10:59.032Z,11.10
2024-01-28T06:13:26.195Z,11.33
2024-01-28T06:15:54.084Z,12.47
2024-01-28T06:18:21.258Z,11.33
2024-01-28T06:20:48.269Z,11.67
2024-01-28T06:23:15.472Z,11.40
2024-01-28T06:25:42.282Z,10.93
2024-01-28T06:28:09.154Z,13.17
2024-01-28T06:30:36.994Z,10.27
2024-01-28T06:33:04.828Z,14.40
2024-01-28T06:35:32.036Z,12.13
2024-01-28T06:37:58.923Z,10.83
2024-01-28T06:40:25.694Z,9.00
2024-01-28T06:42:53.120Z,10.90
2024-01-28T06:45:20.816Z,12.83
2024-01-28T06:47:47.895Z,10.70
2024-01-28T06:50:15.215Z,11.93
2024-01-28T06:52:43.911Z,13.67
2024-01-28T06:55:10.954Z,12.47
2024-01-28T06:57:38.642Z,15.10
2024-01-28T07:00:07.159Z,15.17
2024-01-28T07:02:33.965Z,11.37
2024-01-28T07:05:01.116Z,12.17
2024-01-28T07:07:28.337Z,11.30
2024-01-28T07:09:55.224Z,12.60
2024-01-28T07:12:23.362Z,12.53
2024-01-28T07:14:50.227Z,12.50
2024-01-28T07:17:17.067Z,11.30
2024-01-28T07:19:44.023Z,12.93
2024-01-28T07:22:13.344Z,11.00
2024-01-28T07:24:40.499Z,11.63
2024-01-28T07:27:08.015Z,11.50
2024-01-28T07:29:34.917Z,10.50
2024-01-28T07:32:02.048Z,10.30
2024-01-28T07:34:29.123Z,9.20
2024-01-28T07:36:58.005Z,11.90
2024-01-28T07:39:27.427Z,11.03
2024-01-28T07:41:54.409Z,10.27
2024-01-28T07:44:21.176Z,11.80
2024-01-28T07:46:48.724Z,10.37
2024-01-28T07:49:15.807Z,10.77
2024-01-28T07:51:42.901Z,11.57
2024-01-28T07:54:09.958Z,10.63
2024-01-28T07:56:36.731Z,11.00
2024-01-28T07:59:03.699Z,12.47
2024-01-28T08:01:31.821Z,11.67
2024-01-28T08:03:58.808Z,11.70
2024-01-28T08:06:26.250Z,11.60
2024-01-28T08:08:54.255Z,13.03
2024-01-28T08:11:21.463Z,11.03
2024-01-28T08:13:49.761Z,12.40
2024-01-28T08:16:17.528Z,12.27
2024-01-28T08:18:44.792Z,12.83
2024-01-28T08:21:11.899Z,10.27
2024-01-28T08:23:38.771Z,12.10
2024-01-28T08:26:07.095Z,14.03
2024-01-28T08:28:34.036Z,12.83
2024-01-28T08:31:01.470Z,11.53
2024-01-28T08:33:28.506Z,12.60
2024-01-28T08:35:58.922Z,14.33
2024-01-28T08:38:25.908Z,10.53
2024-01-28T08:40:52.803Z,9.70
2024-01-28T08:43:19.664Z,10.20
2024-01-28T08:45:47.844Z,11.13
2024-01-28T08:48:15.932Z,13.23
2024-01-28T08:50:43.046Z,13.77
2024-01-28T08:53:09.906Z,11.70
2024-01-28T08:55:36.786Z,10.30
2024-01-28T08:58:03.666Z,11.23
2024-01-28T09:00:30.942Z,10.47
2024-01-28T09:02:58.096Z,9.43
2024-01-28T09:05:25.215Z,10.93
2024-01-28T09:07:53.333Z,10.83
2024-01-28T09:10:20.615Z,10.07
2024-01-28T09:12:47.467Z,12.05
2024-01-28T09:15:14.401Z,11.70
2024-01-28T09:17:41.236Z,9.77
2024-01-28T09:20:09.005Z,9.27
2024-01-28T09:22:37.401Z,13.03
2024-01-28T09:25:04.900Z,11.00
2024-01-28T09:27:32.109Z,11.23
2024-01-28T09:29:59.030Z,9.40
2024-01-28T09:32:26.431Z,10.53
2024-01-28T09:34:53.748Z,9.77
2024-01-28T09:37:20.844Z,11.45
2024-01-28T09:39:47.660Z,9.47
2024-01-28T09:42:25.175Z,9.33
2024-01-28T09:44:52.246Z,8.33
2024-01-28T09:47:22.120Z,9.53
2024-01-28T09:49:49.280Z,8.87
2024-01-28T09:52:17.588Z,9.50
2024-01-28T09:54:47.941Z,7.68
2024-01-28T09:57:16.570Z,11.10
2024-01-28T09:59:44.679Z,10.10
2024-01-28T10:02:13.578Z,9.60
2024-01-28T10:04:41.911Z,9.45
2024-01-28T10:07:10.942Z,10.57
2024-01-28T10:09:38.450Z,8.88
2024-01-28T10:12:05.670Z,9.18
2024-01-28T10:14:32.430Z,8.68
2024-01-28T10:16:59.555Z,8.80
2024-01-28T10:19:26.898Z,11.32
2024-01-28T10:21:54.240Z,8.60
2024-01-28T10:24:21.309Z,8.23
2024-01-28T10:26:48.256Z,8.25
2024-01-28T10:29:15.956Z,9.48
2024-01-28T10:31:43.004Z,8.00
2024-01-28T10:34:10.695Z,9.35
2024-01-28T10:36:41.429Z,11.20
2024-01-28T10:39:15.693Z,8.48
2024-01-28T10:41:45.451Z,9.13
2024-01-28T10:44:14.921Z,8.63
2024-01-28T10:46:44.036Z,7.65
2024-01-28T10:49:16.194Z,8.85
2024-01-28T10:51:44.224Z,8.48
2024-01-28T10:54:12.873Z,11.07
2024-01-28T10:56:41.248Z,10.93
2024-01-28T10:59:09.037Z,9.93
2024-01-28T11:01:37.162Z,8.57
2024-01-28T11:04:06.130Z,8.40
2024-01-28T11:06:33.717Z,9.32
2024-01-28T11:09:01.418Z,10.15
2024-01-28T11:11:28.818Z,8.90
2024-01-28T11:13:57.020Z,9.18
2024-01-28T11:16:23.919Z,8.93
2024-01-28T11:19:05.761Z,10.05
2024-01-28T11:21:33.922Z,8.35
2024-01-28T11:24:01.138Z,10.85
2024-01-28T11:26:28.417Z,8.80
2024-01-28T11:28:57.001Z,8.07
2024-01-28T11:31:35.016Z,9.40
2024-01-28T11:34:10.858Z,8.90
2024-01-28T11:36:39.772Z,9.95
2024-01-28T11:39:07.229Z,9.35
2024-01-28T11:41:41.736Z,8.75
2024-01-28T11:44:10.191Z,10.15
2024-01-28T11:46:40.893Z,7.63
2024-01-28T11:49:09.723Z,8.45
2024-01-28T11:51:36.842Z,9.23
2024-01-28T11:54:05.311Z,9.63
2024-01-28T11:56:33.364Z,9.13
2024-01-28T11:59:00.927Z,9.70
2024-01-28T12:01:29.476Z,9.05
2024-01-28T12:03:57.237Z,9.45
2024-01-28T12:06:26.096Z,10.60
2024-01-28T12:08:52.903Z,9.18
2024-01-28T12:11:22.689Z,8.38
2024-01-28T12:13:52.254Z,9.85
2024-01-28T12:16:20.856Z,11.50
2024-01-28T12:18:48.049Z,10.70
2024-01-28T12:21:21.423Z,11.13
2024-01-28T12:24:01.736Z,9.45
2024-01-28T12:26:28.817Z,12.07
2024-01-28T12:28:56.962Z,9.45
2024-01-28T12:31:24.228Z,10.50
2024-01-28T12:33:53.909Z,9.90
2024-01-28T12:36:21.007Z,9.70
2024-01-28T12:38:47.853Z,10.77
2024-01-28T12:41:14.781Z,9.35
2024-01-28T12:43:41.871Z,8.48
2024-01-28T12:46:11.758Z,10.07
2024-01-28T12:48:38.953Z,12.15
2024-01-28T12:51:07.003Z,10.20
2024-01-28T12:53:33.942Z,8.57
2024-01-28T12:56:00.728Z,13.25
2024-01-28T12:58:27.548Z,12.55
2024-01-28T13:00:54.780Z,8.27
2024-01-28T13:03:21.872Z,9.68
2024-01-28T13:05:48.774Z,8.27
2024-01-28T13:08:15.681Z,10.95
2024-01-28T13:10:42.475Z,8.20
2024-01-28T13:13:09.390Z,9.35
2024-01-28T13:15:36.182Z,9.75
2024-01-28T13:18:03.211Z,8.50
2024-01-28T13:20:30.506Z,9.85
2024-01-28T13:22:57.370Z,7.45
2024-01-28T13:25:24.309Z,9.32
2024-01-28T13:27:51.217Z,8.13
2024-01-28T13:30:18.212Z,8.73
2024-01-28T13:32:48.172Z,13.32
2024-01-28T13:35:15.492Z,6.60
2024-01-28T13:37:43.868Z,8.57
2024-01-28T13:40:11.774Z,8.40
2024-01-28T13:42:41.282Z,7.22
2024-01-28T13:45:09.255Z,8.38
2024-01-28T13:47:36.155Z,8.82
2024-01-28T13:50:03.186Z,7.82
2024-01-28T13:52:30.070Z,7.85
2024-01-28T13:54:56.919Z,8.77
2024-01-28T13:57:23.753Z,7.47
2024-01-28T13:59:50.953Z,9.50
2024-01-28T14:02:17.799Z,7.63
2024-01-28T14:04:44.853Z,8.65
2024-01-28T14:07:11.829Z,8.23
2024-01-28T14:09:38.734Z,9.23
2024-01-28T14:12:13.217Z,8.60
2024-01-28T14:14:40.169Z,16.10
2024-01-28T14:17:09.187Z,11.25
2024-01-28T14:19:38.760Z,9.80
2024-01-28T14:22:06.099Z,8.98
2024-01-28T14:24:32.963Z,6.28
2024-01-28T14:26:59.949Z,10.90
2024-01-28T14:29:29.150Z,10.98
2024-01-28T14:31:56.128Z,11.80
2024-01-28T14:34:23.178Z,9.43
2024-01-28T14:36:50.065Z,10.02
2024-01-28T14:39:17.163Z,10.88
2024-01-28T14:41:44.007Z,8.32
2024-01-28T14:44:10.767Z,8.40
2024-01-28T14:46:37.612Z,7.65
2024-01-28T14:49:05.634Z,8.73
2024-01-28T14:51:32.648Z,9.48
2024-01-28T14:53:59.425Z,7.45
2024-01-28T14:56:26.241Z,6.95
2024-01-28T14:58:52.988Z,8.55
2024-01-28T15:01:20.030Z,9.02
2024-01-28T15:03:49.382Z,10.63
2024-01-28T15:06:17.449Z,7.60
2024-01-28T15:08:44.939Z,8.23
2024-01-28T15:11:11.915Z,9.52
2024-01-28T15:13:38.683Z,8.50
2024-01-28T15:16:07.877Z,7.20
2024-01-28T15:18:35.016Z,7.38
2024-01-28T15:21:02.018Z,7.45
2024-01-28T15:23:28.858Z,7.25
2024-01-28T15:25:55.715Z,7.78
2024-01-28T15:28:25.551Z,8.10
2024-01-28T15:30:58.971Z,7.47
2024-01-28T15:33:27.258Z,6.30
2024-01-28T15:35:57.456Z,7.00
2024-01-28T15:38:24.361Z,8.15
2024-01-28T15:40:51.191Z,7.85
2024-01-28T15:43:18.007Z,6.13
2024-01-28T15:45:45.021Z,8.25
2024-01-28T15:48:12.205Z,9.50
2024-01-28T15:50:39.210Z,8.68
2024-01-28T15:53:06.006Z,8.07
2024-01-28T15:55:33.015Z,6.25
2024-01-28T15:58:00.515Z,8.95
2024-01-28T16:00:27.588Z,8.18
2024-01-28T16:02:54.444Z,8.20
2024-01-28T16:05:21.326Z,6.55
2024-01-28T16:07:53.604Z,6.90
2024-01-28T16:10:20.988Z,8.55
2024-01-28T16:12:47.871Z,7.60
2024-01-28T16:15:14.863Z,8.32
2024-01-28T16:17:43.313Z,6.57
2024-01-28T16:20:11.134Z,8.25
2024-01-28T16:22:38.287Z,9.07
2024-01-28T16:25:05.473Z,10.73
2024-01-28T16:27:32.345Z,9.55
2024-01-28T16:29:59.176Z,10.18
2024-01-28T16:32:26.022Z,12.20
2024-01-28T16:34:53.363Z,12.60
2024-01-28T16:37:23.283Z,11.63
2024-01-28T16:39:51.444Z,10.77
2024-01-28T16:42:18.259Z,10.05
2024-01-28T16:44:45.115Z,10.43
2024-01-28T16:47:15.067Z,9.23
2024-01-28T16:49:42.065Z,13.32
2024-01-28T16:52:09.047Z,10.50
2024-01-28T16:54:35.876Z,11.48
2024-01-28T16:57:05.019Z,11.43
2024-01-28T16:59:31.840Z,11.75
2024-01-28T17:01:58.722Z,10.10
2024-01-28T17:04:26.949Z,10.50
2024-01-28T17:06:53.899Z,13.68
2024-01-28T17:09:20.772Z,10.13
2024-01-28T17:11:47.598Z,13.35
2024-01-28T17:14:16.827Z,11.10
2024-01-28T17:16:44.122Z,10.23
2024-01-28T17:19:11.619Z,10.48
2024-01-28T17:21:38.883Z,10.52
2024-01-28T17:24:06.576Z,9.70
2024-01-28T17:26:34.290Z,11.80
2024-01-28T17:29:01.025Z,14.27
2024-01-28T17:31:32.718Z,11.43
2024-01-28T17:33:59.608Z,11.32
2024-01-28T17:36:28.437Z,15.68
2024-01-28T17:38:58.729Z,13.77
2024-01-28T17:41:25.682Z,14.23
2024-01-28T17:43:52.526Z,11.52
2024-01-28T17:46:19.873Z,10.82
2024-01-28T17:48:46.824Z,10.57
2024-01-28T17:51:13.986Z,13.70
2024-01-28T17:53:43.476Z,13.48
2024-01-28T17:56:12.371Z,13.98
2024-01-28T17:58:39.484Z,11.43
2024-01-28T18:01:07.899Z,10.82
2024-01-28T18:03:35.944Z,12.27
2024-01-28T18:06:02.941Z,13.57
2024-01-28T18:08:29.924Z,11.00
2024-01-28T18:10:56.741Z,13.00
2024-01-28T18:13:23.571Z,12.75
2024-01-28T18:15:50.440Z,11.17
2024-01-28T18:18:17.566Z,11.90
2024-01-28T18:20:44.511Z,13.05
2024-01-28T18:23:11.401Z,13.75
2024-01-28T18:25:40.993Z,10.85
2024-01-28T18:28:07.893Z,10.90
2024-01-28T18:30:34.690Z,9.73
2024-01-28T18:33:01.566Z,12.17
2024-01-28T18:35:29.457Z,12.97
2024-01-28T18:37:57.265Z,11.30
2024-01-28T18:40:24.660Z,10.68
2024-01-28T18:42:51.749Z,12.53
2024-01-28T18:45:18.636Z,12.20
2024-01-28T18:47:45.469Z,11.87
2024-01-28T18:50:12.716Z,10.37
2024-01-28T18:52:39.782Z,11.13
2024-01-28T18:55:06.782Z,9.73
2024-01-28T18:57:33.561Z,11.45
2024-01-28T19:00:00.358Z,9.33
2024-01-28T19:02:27.783Z,10.40
2024-01-28T19:04:54.542Z,12.15
2024-01-28T19:07:21.667Z,10.23
2024-01-28T19:09:48.548Z,11.18
2024-01-28T19:12:15.813Z,11.02
2024-01-28T19:14:43.516Z,10.13
2024-01-28T19:17:10.322Z,10.83
2024-01-28T19:19:37.266Z,10.30
2024-01-28T19:22:04.713Z,10.33
2024-01-28T19:24:31.727Z,9.50
2024-01-28T19:26:58.555Z,9.67
2024-01-28T19:29:26.668Z,9.33
2024-01-28T19:31:53.461Z,8.63
2024-01-28T19:34:20.321Z,10.40
2024-01-28T19:36:47.282Z,9.73
2024-01-28T19:39:15.775Z,13.03
2024-01-28T19:41:43.961Z,10.30
2024-01-28T19:44:11.861Z,9.83
2024-01-28T19:46:38.696Z,9.30
2024-01-28T19:49:08.761Z,9.20
2024-01-28T19:51:35.729Z,9.87
2024-01-28T19:54:02.480Z,9.73
2024-01-28T19:56:29.206Z,10.77
2024-01-28T19:58:57.245Z,10.17
2024-01-28T20:01:24.186Z,11.73
2024-01-28T20:03:51.106Z,11.67
2024-01-28T20:06:27.643Z,12.70
2024-01-28T20:08:59.346Z,9.33
2024-01-28T20:11:26.538Z,8.57
2024-01-28T20:13:53.393Z,9.93
2024-01-28T20:16:20.247Z,8.83
2024-01-28T20:18:47.147Z,7.47
2024-01-28T20:21:14.125Z,7.73
2024-01-28T20:23:42.786Z,9.30
2024-01-28T20:26:09.772Z,8.47
2024-01-28T20:28:36.679Z,7.33
2024-01-28T20:31:03.715Z,7.60
2024-01-28T20:33:30.661Z,8.50
2024-01-28T20:35:57.774Z,7.50
2024-01-28T20:38:24.598Z,7.97
2024-01-28T20:40:51.478Z,7.93
2024-01-28T20:43:19.838Z,9.30
2024-01-28T20:45:46.932Z,7.87
2024-01-28T20:48:13.859Z,8.70
2024-01-28T20:50:40.760Z,8.80
2024-01-28T20:53:07.739Z,6.80
2024-01-28T20:55:34.824Z,7.43
2024-01-28T20:58:01.904Z,9.10
2024-01-28T21:00:29.174Z,6.80
2024-01-28T21:02:56.062Z,7.37
2024-01-28T21:05:24.650Z,7.83
2024-01-28T21:07:51.514Z,9.50
2024-01-28T21:10:18.464Z,9.03
2024-01-28T21:12:45.317Z,7.87
2024-01-28T21:15:12.149Z,7.83
2024-01-28T21:17:39.440Z,6.40
2024-01-28T21:20:06.818Z,6.30
2024-01-28T21:22:33.615Z,9.77
2024-01-28T21:25:00.894Z,7.90
2024-01-28T21:27:27.989Z,7.30
2024-01-28T21:29:54.867Z,7.20
2024-01-28T21:32:22.513Z,7.13
2024-01-28T21:34:49.432Z,8.73
2024-01-28T21:37:16.382Z,7.43
2024-01-28T21:39:43.272Z,7.07
2024-01-28T21:42:10.080Z,8.47
2024-01-28T21:44:36.953Z,7.30
2024-01-28T21:47:06.198Z,10.77
2024-01-28T21:49:34.243Z,10.37
2024-01-28T21:52:04.314Z,10.07
2024-01-28T21:54:31.181Z,14.33
2024-01-28T21:56:58.000Z,13.67
2024-01-28T21:59:24.818Z,14.40
2024-01-28T22:01:51.635Z,11.80
2024-01-28T22:04:18.613Z,9.60
2024-01-28T22:06:45.923Z,10.07
2024-01-28T22:09:13.081Z,8.27
2024-01-28T22:11:41.025Z,5.07
2024-01-28T22:14:08.041Z,6.83
2024-01-28T22:16:34.833Z,5.77
2024-01-28T22:19:02.185Z,5.53
2024-01-28T22:21:29.539Z,5.60
2024-01-28T22:23:56.562Z,6.40
2024-01-28T22:26:23.692Z,5.77
2024-01-28T22:28:50.922Z,5.60
2024-01-28T22:31:17.697Z,5.60
2024-01-28T22:33:45.425Z,5.33
2024-01-28T22:36:12.744Z,7.07
2024-01-28T22:38:39.705Z,5.67
2024-01-28T22:41:06.555Z,5.40
2024-01-28T22:43:33.298Z,4.40
2024-01-28T22:46:00.304Z,5.90
2024-01-28T22:48:29.494Z,6.70
2024-01-28T22:50:56.759Z,5.07
2024-01-28T22:53:23.725Z,5.83
2024-01-28T22:55:50.499Z,5.03
2024-01-28T22:58:17.324Z,5.17
2024-01-28T23:00:48.012Z,8.20
2024-01-28T23:03:15.001Z,6.03
2024-01-28T23:05:42.722Z,5.00
2024-01-28T23:08:10.554Z,4.87
2024-01-28T23:10:38.617Z,5.40
2024-01-28T23:13:07.011Z,7.10
2024-01-28T23:15:35.174Z,5.00
2024-01-28T23:18:02.385Z,6.47
2024-01-28T23:20:29.329Z,5.43
2024-01-28T23:22:56.486Z,6.27
2024-01-28T23:25:23.990Z,5.67
2024-01-28T23:27:50.796Z,4.67
2024-01-28T23:30:18.782Z,6.07
2024-01-28T23:32:45.736Z,5.23
2024-01-28T23:35:13.168Z,5.10
2024-01-28T23:37:40.474Z,9.03
2024-01-28T23:40:11.741Z,16.20
2024-01-28T23:42:39.649Z,25.13
2024-01-28T23:45:10.912Z,31.17
2024-01-28T23:47:38.010Z,35.60
2024-01-28T23:50:06.336Z,38.17
2024-01-28T23:52:33.074Z,30.27
2024-01-28T23:55:00.144Z,28.00
2024-01-28T23:57:27.257Z,24.00
2024-01-28T23:59:54.095Z,17.97
